createdAt,value
2019-02-19T00:09:15.870Z,9.30
2019-02-19T00:14:21.729Z,9.20
2019-02-19T00:19:27.398Z,9.30
2019-02-19T00:24:32.487Z,9.20
2019-02-19T00:29:38.929Z,9.30
2019-02-19T00:34:48.632Z,9.20
2019-02-19T00:39:55.483Z,9.10
2019-02-19T00:45:01.335Z,9.20
2019-02-19T00:50:09.607Z,9.20
2019-02-19T00:55:15.985Z,9.10
2019-02-19T01:00:22.572Z,9.10
2019-02-19T01:05:27.743Z,9.20
2019-02-19T01:10:39.774Z,9.20
2019-02-19T01:20:51.786Z,9.30
2019-02-19T01:31:02.888Z,9.30
2019-02-19T01:36:08.184Z,9.30
2019-02-19T01:41:13.561Z,9.50
2019-02-19T01:56:27.944Z,9.90
2019-02-19T02:01:33.761Z,10.30
2019-02-19T02:06:46.888Z,10.30
2019-02-19T02:11:53.010Z,10.30
2019-02-19T02:17:01.077Z,10.40
2019-02-19T02:22:09.251Z,10.60
2019-02-19T02:27:15.197Z,10.60
2019-02-19T02:37:33.696Z,10.40
2019-02-19T02:42:39.351Z,10.40
2019-02-19T02:47:48.581Z,10.50
2019-02-19T02:52:53.427Z,10.60
2019-02-19T02:57:58.916Z,10.80
2019-02-19T03:03:04.242Z,10.70
2019-02-19T03:08:09.358Z,10.10
2019-02-19T03:13:14.623Z,10.00
2019-02-19T03:18:20.658Z,10.20
2019-02-19T03:23:26.659Z,10.70
2019-02-19T03:28:32.108Z,10.40
2019-02-19T03:33:37.035Z,10.30
2019-02-19T03:38:41.891Z,10.50
2019-02-19T03:43:47.293Z,10.50
2019-02-19T03:48:52.553Z,10.50
2019-02-19T03:53:58.560Z,9.30
2019-02-19T03:59:03.561Z,9.10
2019-02-19T04:04:08.524Z,9.40
2019-02-19T04:09:13.860Z,9.30
2019-02-19T04:14:19.100Z,9.50
2019-02-19T04:19:24.120Z,9.40
2019-02-19T04:24:29.090Z,9.30
2019-02-19T04:34:38.140Z,9.20
2019-02-19T04:39:43.324Z,9.00
2019-02-19T04:49:55.077Z,9.00
2019-02-19T04:54:59.949Z,8.80
2019-02-19T05:00:05.675Z,8.70
2019-02-19T05:05:10.942Z,9.00
2019-02-19T05:10:15.857Z,9.30
2019-02-19T05:20:24.884Z,9.10
2019-02-19T05:25:29.748Z,9.20
2019-02-19T05:30:35.039Z,9.00
2019-02-19T05:35:40.002Z,8.90
2019-02-19T05:45:52.580Z,8.70
2019-02-19T05:56:04.990Z,9.00
2019-02-19T06:01:10.002Z,9.10
2019-02-19T06:16:23.344Z,8.90
2019-02-19T06:21:28.380Z,9.20
2019-02-19T06:31:38.604Z,8.80
2019-02-19T06:46:52.965Z,9.00
2019-02-19T06:57:07.526Z,8.90
2019-02-19T07:02:26.722Z,9.00
2019-02-19T07:27:52.945Z,9.20
2019-02-19T07:32:57.993Z,9.40
2019-02-19T07:43:08.584Z,9.10
2019-02-19T07:48:14.122Z,8.90
2019-02-19T08:03:30.570Z,9.10
2019-02-19T08:08:35.936Z,8.90
2019-02-19T08:18:45.169Z,9.20
2019-02-19T08:23:50.523Z,9.80
2019-02-19T08:29:07.102Z,10.50
2019-02-19T08:34:11.375Z,10.70
2019-02-19T08:44:26.286Z,10.80
2019-02-19T08:49:31.221Z,11.20
2019-02-19T08:54:35.913Z,11.50
2019-02-19T09:04:48.012Z,12.20
2019-02-19T09:10:02.179Z,13.30
2019-02-19T09:15:13.674Z,13.60
2019-02-19T09:20:23.215Z,13.00
2019-02-19T09:25:28.695Z,13.80
2019-02-19T09:30:36.447Z,13.20
2019-02-19T09:35:41.801Z,15.90
2019-02-19T09:40:50.812Z,15.40
2019-02-19T09:45:59.070Z,15.20
2019-02-19T09:51:05.499Z,15.80
2019-02-19T10:01:13.788Z,15.60
2019-02-19T10:06:26.196Z,16.20
2019-02-19T10:11:31.830Z,15.20
2019-02-19T10:16:41.694Z,15.90
2019-02-19T10:21:46.847Z,15.30
2019-02-19T10:26:52.163Z,15.20
2019-02-19T10:32:06.029Z,14.00
2019-02-19T10:37:15.847Z,14.50
2019-02-19T10:42:28.869Z,14.10
2019-02-19T10:47:35.965Z,13.80
2019-02-19T10:52:43.229Z,13.20
2019-02-19T10:58:01.653Z,13.10
2019-02-19T11:03:09.990Z,15.10
2019-02-19T11:08:15.349Z,16.10
2019-02-19T11:13:23.636Z,15.20
2019-02-19T11:18:29.941Z,14.90
2019-02-19T11:23:40.707Z,14.30
2019-02-19T11:28:47.818Z,14.50
2019-02-19T11:33:55.250Z,13.70
2019-02-19T11:39:08.161Z,13.20
2019-02-19T11:44:13.245Z,13.10
2019-02-19T11:49:21.451Z,13.30
2019-02-19T11:59:59.679Z,14.00
2019-02-19T12:05:06.879Z,13.50
2019-02-19T12:10:16.056Z,14.20
2019-02-19T12:15:21.391Z,13.80
2019-02-19T12:20:27.602Z,13.70
2019-02-19T12:25:32.603Z,13.40
2019-02-19T12:30:38.092Z,13.80
2019-02-19T12:35:46.356Z,12.40
2019-02-19T12:40:51.616Z,12.40
2019-02-19T12:45:56.974Z,13.50
2019-02-19T12:51:02.196Z,13.90
2019-02-19T12:56:09.540Z,13.80
2019-02-19T13:01:17.397Z,13.90
2019-02-19T13:06:23.325Z,14.70
2019-02-19T13:11:30.310Z,14.80
2019-02-19T13:21:39.946Z,13.90
2019-02-19T13:26:47.067Z,13.70
2019-02-19T13:31:52.419Z,14.00
2019-02-19T13:36:59.799Z,13.50
2019-02-19T13:42:05.649Z,13.60
2019-02-19T13:47:13.929Z,13.60
2019-02-19T13:52:31.968Z,14.20
2019-02-19T13:57:37.682Z,13.70
2019-02-19T14:02:42.530Z,14.00
2019-02-19T14:07:47.795Z,14.00
2019-02-19T14:12:54.816Z,13.90
2019-02-19T14:18:00.341Z,14.50
2019-02-19T14:23:19.275Z,14.40
2019-02-19T14:29:01.757Z,13.40
2019-02-19T14:34:28.421Z,13.90
2019-02-19T14:39:52.682Z,14.00
2019-02-19T14:45:25.864Z,14.90
2019-02-19T14:50:56.540Z,14.30
2019-02-19T14:56:23.560Z,14.10
2019-02-19T15:01:53.589Z,14.20
2019-02-19T15:07:20.272Z,13.60
2019-02-19T21:35:25.724Z,9.00
2019-02-19T21:55:43.507Z,9.30
2019-02-19T22:00:48.352Z,9.30
2019-02-19T22:05:53.323Z,9.40
2019-02-19T22:10:58.088Z,8.50
2019-02-19T22:21:38.493Z,7.80
2019-02-19T22:26:43.476Z,7.20
2019-02-19T22:31:48.422Z,7.20
2019-02-19T22:36:53.192Z,7.20
2019-02-19T22:57:16.133Z,6.80
2019-02-19T23:07:37.346Z,6.80
2019-02-19T23:12:42.213Z,6.70
2019-02-19T23:17:47.005Z,6.70
2019-02-19T23:22:51.972Z,6.90
2019-02-19T23:27:56.812Z,7.20
2019-02-19T23:38:07.384Z,6.80
